Terminal Aerodrome Forecast
Issued by NWS

Home | Current Version | Previous Version | Text Only | Print | Product List | Glossary On
Versions: 1 2 3 4 5 6 7 8 9 10 11 12 13 14 15 16 17 18 19 20 21 22 23 24 25 26 27 28
000
FTUS43 KABR 151732
TAFPIR
TAF
KPIR 151732Z 1518/1618 31016G24KT P6SM FEW035
     FM152100 31016G22KT P6SM FEW050 SCT120
     FM160000 32013KT P6SM FEW060 FEW250
     FM160300 32005KT P6SM FEW250
     FM161700 30006KT P6SM SCT200=

USA.gov is the U.S. government's official web portal to all federal, state and local government web resources and services.